Florissant, MO (63031)

1:51 PM CDT on August 27, 2016 (GMT -0500)
Riverwood Place | | Change Station

Elev 531 ft 38.80 °N, 90.37 °W | Updated 1 second ago

Mostly Cloudy
Mostly Cloudy
88.6 °F
Feels Like 101 °F
N
0.0
Wind Variable Wind from WNW
Gusts 3.0 mph

Today
High -- | Low -- °F
--% Chance of Precip.
Yesterday
High -- | Low -- °F
Precip. -- in
Pressure 30.01 in
Visibility 10.0 miles
Clouds Few 5000 ft
Mostly Cloudy 20000 ft
Heat Index 101 °F
Dew Point 77 °F
Humidity 69%
Rainfall 0.00 in
Snow Depth Not available.
6:26 AM 7:38 PM
Waning Crescent, 22% visible
METAR KSTL 271751Z 00000KT 10SM FEW050 BKN200 32/22 A3005 RMK AO2 SLP162 T03170217 10328 20239 58008
Pressure 30.01 in
Visibility 10.0 miles
Clouds Few 5000 ft
Mostly Cloudy 20000 ft
Heat Index 101 °F
Dew Point 77 °F
Humidity 69%
Rainfall 0.00 in
Snow Depth Not available.
6:26 AM 7:38 PM
Waning Crescent, 22% visible
METAR KSTL 271751Z 00000KT 10SM FEW050 BKN200 32/22 A3005 RMK AO2 SLP162 T03170217 10328 20239 58008

10-Day Weather Forecast

Almanac

Astronomy

Aug. 27, 2016 Rise Set
Actual Time
Civil Twilight
Nautical Twilight
Astronomical Twilight
Moon
Length of Visible Light
Length of Day
Tomorrow will be .
, % of the Moon is Illuminated

Today's Extremes

State Highs State Lows

Community

WunderPhotos

Upload Photos

1,935,399 photos uploaded!

WunderBlog® & News

Nearby

Air Quality

  Air Quality AQ Index Pollutant
Not available.

Snow Depth

Station Depth Elevation

Earthquake Activity

City Distance Mag. Time & Date
Minimum magnitude displayed is 2.5.

Coastal Water Temperatures

Place Temperature

Stations

Nearby Weather Stations

Station Location Temp. Windchill Dew Point Humidity Wind Precip. Elev Updated Type
                   

Watches & Warnings

There are currently no watches in effect.